^^
Station Historical Data
Daily Summary for March 3, 2017 Units:  English    Metric   Both
« Previous Day
Next Day »
Daily Weekly Monthly Yearly Custom
  High: Low: Average:
Temperature: 35.7 °F 21.0 °F 29.4 °F
Dew Point: 19.2 °F 2.8 °F 12.1 °F
Humidity: 72% 31% 49%
Wind Speed: 10.0mph 0.0mph 2.4mph
Wind Gust: 22.0mph - -
Wind- - SW
Pressure: 30.45 in 30.10 in -
Precipitation: 0.00 in    
Historical Graphs
 
 
Tabular Data for March 3, 2017
Time Temperature Dew Point Pressure Wind Wind Speed Wind Gust Humidity Rainfall Rate (Hourly) Conditions
00:00 31.8 °F 13.8 °F 30.10 in SE 2.0 mph 12.0 mph 47% 0.00 in CLR
00:15 31.6 °F 13.7 °F 30.10 in WSW 5.0 mph 16.0 mph 47% 0.00 in CLR
00:30 31.3 °F 13.9 °F 30.11 in West 1.0 mph 16.0 mph 48% 0.00 in CLR
00:45 31.0 °F 14.0 °F 30.11 in North 1.0 mph 9.0 mph 49% 0.00 in CLR
01:00 30.6 °F 13.7 °F 30.12 in NW 3.0 mph 12.0 mph 49% 0.00 in CLR
02:15 29.4 °F 12.6 °F 30.13 in WSW 1.0 mph 12.0 mph 49% 0.00 in CLR
02:30 29.1 °F 13.2 °F 30.13 in WSW 1.0 mph 10.0 mph 51% 0.00 in CLR
02:45 28.8 °F 12.5 °F 30.14 in West 2.0 mph 13.0 mph 50% 0.00 in CLR
03:00 28.5 °F 13.1 °F 30.14 in Calm   6.0 mph 52% 0.00 in CLR
03:15 28.4 °F 13.4 °F 30.14 in Calm   8.0 mph 53% 0.00 in CLR
03:30 28.1 °F 13.1 °F 30.14 in NW 1.0 mph 6.0 mph 53% 0.00 in CLR
03:45 28.0 °F 13.0 °F 30.15 in WNW 2.0 mph 12.0 mph 53% 0.00 in CLR
04:00 27.8 °F 13.3 °F 30.15 in SSE 3.0 mph 12.0 mph 54% 0.00 in CLR
04:15 27.6 °F 13.5 °F 30.15 in WSW 1.0 mph 6.0 mph 55% 0.00 in CLR
04:30 27.4 °F 13.3 °F 30.16 in SSW 1.0 mph 6.0 mph 55% 0.00 in CLR
04:45 27.2 °F 13.1 °F 30.16 in SW 2.0 mph 7.0 mph 55% 0.00 in CLR
05:00 27.1 °F 13.5 °F 30.17 in Calm   7.0 mph 56% 0.00 in CLR
05:15 27.0 °F 13.8 °F 30.18 in WSW 3.0 mph 10.0 mph 57% 0.00 in CLR
05:30 26.9 °F 14.1 °F 30.18 in WSW 2.0 mph 6.0 mph 58% 0.00 in CLR
05:45 26.9 °F 14.1 °F 30.18 in SW 2.0 mph 8.0 mph 58% 0.00 in CLR
06:00 26.9 °F 14.5 °F 30.19 in SW 2.0 mph 10.0 mph 59% 0.00 in CLR
06:15 26.8 °F 14.0 °F 30.20 in SW 1.0 mph 8.0 mph 58% 0.00 in CLR
06:30 26.6 °F 14.2 °F 30.20 in South 1.0 mph 7.0 mph 59% 0.00 in CLR
06:45 26.5 °F 14.5 °F 30.20 in SSE 3.0 mph 9.0 mph 60% 0.00 in CLR
07:00 26.5 °F 14.5 °F 30.21 in SW 1.0 mph 6.0 mph 60% 0.00 in CLR
07:15 26.5 °F 14.5 °F 30.22 in WSW 1.0 mph 9.0 mph 60% 0.00 in CLR
07:30 26.6 °F 14.5 °F 30.22 in SSW 2.0 mph 10.0 mph 60% 0.00 in CLR
07:45 26.8 °F 14.7 °F 30.23 in Calm   8.0 mph 60% 0.00 in CLR
08:00 27.1 °F 15.0 °F 30.23 in NW 1.0 mph 6.0 mph 60% 0.00 in CLR
08:15 27.3 °F 14.8 °F 30.23 in Calm   7.0 mph 59% 0.00 in FEW
08:30 27.7 °F 15.2 °F 30.24 in WSW 2.0 mph 9.0 mph 59% 0.00 in FEW
08:45 28.5 °F 15.6 °F 30.24 in NW 2.0 mph 12.0 mph 58% 0.00 in FEW
09:00 28.9 °F 15.2 °F 30.24 in SSW 2.0 mph 8.0 mph 56% 0.00 in FEW
09:15 29.0 °F 15.7 °F 30.25 in NW 2.0 mph 12.0 mph 57% 0.00 in SCT
09:30 28.9 °F 16.4 °F 30.25 in SSW 1.0 mph 12.0 mph 59% 0.00 in SCT
09:45 29.9 °F 16.0 °F 30.24 in WSW 1.0 mph 10.0 mph 56% 0.00 in SCT
10:00 30.4 °F 15.8 °F 30.24 in SSE 1.0 mph 12.0 mph 54% 0.00 in SCT
10:15 30.9 °F 15.3 °F 30.25 in WNW 2.0 mph 8.0 mph 52% 0.00 in SCT
10:30 30.2 °F 14.2 °F 30.24 in NNW 2.0 mph 10.0 mph 51% 0.00 in SCT
10:45 30.6 °F 15.0 °F 30.24 in West 2.0 mph 9.0 mph 52% 0.00 in SCT
11:00 30.9 °F 14.4 °F 30.25 in North 1.0 mph 10.0 mph 50% 0.00 in SCT
11:15 31.3 °F 14.8 °F 30.25 in WNW 1.0 mph 8.0 mph 50% 0.00 in BKN
11:30 32.9 °F 14.8 °F 30.25 in WSW 2.0 mph 9.0 mph 47% 0.00 in BKN
11:45 32.0 °F 14.5 °F 30.25 in North 1.0 mph 8.0 mph 48% 0.00 in BKN
12:00 32.1 °F 14.1 °F 30.25 in SW 1.0 mph 10.0 mph 47% 0.00 in BKN
12:15 32.5 °F 13.0 °F 30.24 in West 3.0 mph 12.0 mph 44% 0.00 in BKN
12:30 34.4 °F 14.2 °F 30.24 in WNW 2.0 mph 6.0 mph 43% 0.00 in BKN
12:45 33.6 °F 12.9 °F 30.23 in NNW 3.0 mph 12.0 mph 42% 0.00 in BKN
13:00 34.6 °F 13.8 °F 30.22 in SW 3.0 mph 12.0 mph 42% 0.00 in BKN
13:15 35.7 °F 11.9 °F 30.22 in WNW 3.0 mph 13.0 mph 37% 0.00 in SCT
13:30 35.5 °F 11.2 °F 30.21 in WSW 3.0 mph 9.0 mph 36% 0.00 in SCT
13:45 34.7 °F 11.0 °F 30.21 in SSW 6.0 mph 12.0 mph 37% 0.00 in SCT
14:00 35.5 °F 10.5 °F 30.21 in WSW 3.0 mph 12.0 mph 35% 0.00 in SCT
14:15 34.9 °F 10.0 °F 30.21 in West 2.0 mph 15.0 mph 35% 0.00 in SCT
14:30 35.6 °F 10.0 °F 30.21 in WSW 5.0 mph 13.0 mph 34% 0.00 in SCT
14:45 34.5 °F 6.9 °F 30.21 in WNW 5.0 mph 15.0 mph 31% 0.00 in SCT
15:00 34.5 °F 6.9 °F 30.21 in West 7.0 mph 14.0 mph 31% 0.00 in SCT
15:15 34.5 °F 9.0 °F 30.22 in NE 2.0 mph 13.0 mph 34% 0.00 in BKN
15:30 34.3 °F 8.8 °F 30.21 in Calm   9.0 mph 34% 0.00 in BKN
15:45 34.1 °F 7.9 °F 30.22 in West 3.0 mph 9.0 mph 33% 0.00 in BKN
16:00 34.4 °F 8.2 °F 30.22 in West 3.0 mph 9.0 mph 33% 0.00 in BKN
16:15 35.1 °F 8.9 °F 30.22 in NNE 2.0 mph 8.0 mph 33% 0.00 in BKN
16:30 35.4 °F 9.1 °F 30.23 in WSW 6.0 mph 15.0 mph 33% 0.00 in BKN
16:45 34.8 °F 9.2 °F 30.23 in WSW 3.0 mph 15.0 mph 34% 0.00 in BKN
17:00 35.0 °F 10.0 °F 30.24 in SSW 5.0 mph 13.0 mph 35% 0.00 in BKN
17:15 34.3 °F 9.4 °F 30.25 in SW 2.0 mph 13.0 mph 35% 0.00 in SCT
17:30 33.6 °F 13.5 °F 30.26 in SSE 5.0 mph 20.0 mph 43% 0.00 in SCT
17:45 31.8 °F 13.3 °F 30.28 in SSW 3.0 mph 17.0 mph 46% 0.00 in SCT
18:00 30.8 °F 13.8 °F 30.29 in ENE 3.0 mph 21.0 mph 49% 0.00 in SCT
18:15 29.9 °F 16.5 °F 30.30 in NW 2.0 mph 15.0 mph 57% 0.00 in SCT
18:30 29.4 °F 18.3 °F 30.32 in West 5.0 mph 15.0 mph 63% 0.00 in SCT
18:45 27.8 °F 18.3 °F 30.32 in South 2.0 mph 12.0 mph 67% 0.00 in SCT
19:00 27.5 °F 18.7 °F 30.33 in West 2.0 mph 9.0 mph 69% 0.00 in SCT
19:15 27.0 °F 19.2 °F 30.33 in NW 1.0 mph 8.0 mph 72% 0.00 in FEW
19:30 27.2 °F 17.7 °F 30.34 in NNE 2.0 mph 12.0 mph 67% 0.00 in FEW
19:45 27.5 °F 13.4 °F 30.35 in North 5.0 mph 16.0 mph 55% 0.00 in FEW
20:00 26.9 °F 10.7 °F 30.36 in NNE 7.0 mph 22.0 mph 50% 0.00 in FEW
20:15 26.5 °F 9.0 °F 30.38 in NNE 6.0 mph 15.0 mph 47% 0.00 in FEW
20:30 26.2 °F 8.7 °F 30.38 in North 5.0 mph 12.0 mph 47% 0.00 in FEW
20:45 25.7 °F 7.8 °F 30.40 in NNE 2.0 mph 13.0 mph 46% 0.00 in FEW
21:00 25.4 °F 8.4 °F 30.41 in West 1.0 mph 16.0 mph 48% 0.00 in FEW
21:15 25.0 °F 7.1 °F 30.42 in NNE 5.0 mph 14.0 mph 46% 0.00 in CLR
21:45 23.8 °F 4.0 °F 30.44 in WSW 3.0 mph 18.0 mph 42% 0.00 in CLR
22:00 23.4 °F 4.7 °F 30.44 in WSW 3.0 mph 12.0 mph 44% 0.00 in CLR
22:15 23.1 °F 2.8 °F 30.44 in NNE 10.0 mph 22.0 mph 41% 0.00 in CLR
22:30 22.6 °F 2.9 °F 30.45 in ENE 1.0 mph 14.0 mph 42% 0.00 in CLR
22:45 22.2 °F 3.6 °F 30.45 in Calm   15.0 mph 44% 0.00 in CLR
23:00 21.9 °F 3.8 °F 30.45 in WSW 1.0 mph 13.0 mph 45% 0.00 in CLR
23:15 21.6 °F 4.0 °F 30.45 in WSW 1.0 mph 16.0 mph 46% 0.00 in CLR
23:30 21.3 °F 4.2 °F 30.45 in SW 1.0 mph 13.0 mph 47% 0.00 in CLR
23:45 21.0 °F 4.4 °F 30.45 in SW 3.0 mph 13.0 mph 48% 0.00 in CLR
TarryTown NY Weather
Compliments of Weather Underground - 1.5 mb